Time;durP1;ratioP1;P1;durP2;ratioP2;P2;SDS_P1;SDS_P2;PMS_P1;PMS_P2;Temp;Humidity;BMP_temperature;BMP_pressure;BME280_temperature;BME280_humidity;BME280_pressure;Samples;Min_cycle;Max_cycle;Signal;HPM_P1;HPM_P2
2022/04/15 00:02:01;;;;;;;;;;;;;;;21.15;40.90;102190.50;7284278;19;152185;-59
2022/04/15 00:04:29;;;;;;;;;;;;;;;21.16;41.34;102197.81;7280942;19;153350;-58
2022/04/15 00:06:55;;;;;;;;;;;;;;;21.17;41.23;102193.84;7280534;19;154289;-60
2022/04/15 00:09:22;;;;;;;;;;;;;;;21.17;41.32;102198.63;7284125;19;151994;-59
2022/04/15 00:11:49;;;;;;;;;;;;;;;21.18;41.06;102198.38;7284360;19;152643;-58
2022/04/15 00:14:16;;;;;;;;;;;;;;;21.17;41.06;102201.44;7279655;19;154140;-58
2022/04/15 00:16:43;;;;;;;;;;;;;;;21.17;40.99;102193.00;7291175;19;151977;-59
2022/04/15 00:19:11;;;;;;;;;;;;;;;21.17;41.45;102199.47;7282036;19;153532;-59
2022/04/15 00:21:38;;;;;;;;;;;;;;;21.18;41.46;102197.53;7284183;19;152053;-59
2022/04/15 00:24:05;;;;;;;;;;;;;;;21.16;41.17;102196.97;7279025;19;153612;-59
2022/04/15 00:26:32;;;;;;;;;;;;;;;21.17;41.12;102196.66;7279950;19;153991;-59
2022/04/15 00:28:58;;;;;;;;;;;;;;;21.17;41.55;102201.44;7283737;19;152367;-59
2022/04/15 00:31:25;;;;;;;;;;;;;;;21.19;41.61;102204.84;7283534;19;153287;-59
2022/04/15 00:33:52;;;;;;;;;;;;;;;21.19;41.38;102202.03;7281715;19;151973;-59
2022/04/15 00:36:18;;;;;;;;;;;;;;;21.16;41.42;102206.25;7282984;19;151812;-59
2022/04/15 00:38:45;;;;;;;;;;;;;;;21.19;41.19;102207.63;7289811;19;154031;-60
2022/04/15 00:41:15;;;;;;;;;;;;;;;21.17;41.19;102202.28;7282616;19;152273;-58
2022/04/15 00:43:42;;;;;;;;;;;;;;;21.18;41.45;102217.19;7280409;19;153764;-58
2022/04/15 00:46:09;;;;;;;;;;;;;;;21.18;41.41;102211.56;7281207;19;154330;-58
2022/04/15 00:48:36;;;;;;;;;;;;;;;21.20;41.68;102214.97;7283213;19;151761;-58
2022/04/15 00:51:03;;;;;;;;;;;;;;;21.17;41.75;102221.13;7282366;19;152975;-58
2022/04/15 00:53:31;;;;;;;;;;;;;;;21.18;41.25;102220.84;7281577;19;153959;-59
2022/04/15 00:56:01;;;;;;;;;;;;;;;21.19;41.33;102218.88;7281447;19;151990;-59
2022/04/15 00:58:28;;;;;;;;;;;;;;;21.17;41.65;102210.72;7282646;19;152454;-59
2022/04/15 01:00:58;;;;;;;;;;;;;;;21.18;41.77;102215.22;7286920;19;154563;-59
2022/04/15 01:03:24;;;;;;;;;;;;;;;21.19;41.62;102218.88;7278707;19;152471;-59
2022/04/15 01:05:55;;;;;;;;;;;;;;;21.20;41.76;102226.19;7281710;19;154447;-57
2022/04/15 01:08:22;;;;;;;;;;;;;;;21.20;41.90;102223.38;7282138;19;152058;-59
2022/04/15 01:10:51;;;;;;;;;;;;;;;21.18;41.98;102222.81;7280796;19;153368;-59
2022/04/15 01:13:20;;;;;;;;;;;;;;;21.14;41.97;102225.34;7277593;19;153298;-58
2022/04/15 01:15:51;;;;;;;;;;;;;;;21.14;42.11;102230.97;7282014;19;153259;-58
2022/04/15 01:18:17;;;;;;;;;;;;;;;21.17;41.93;102236.03;7282351;19;151825;-58
2022/04/15 01:20:48;;;;;;;;;;;;;;;21.20;41.68;102229.00;7280201;19;153769;-59
2022/04/15 01:23:14;;;;;;;;;;;;;;;21.15;41.75;102235.47;7289271;19;151858;-58
2022/04/15 01:25:47;;;;;;;;;;;;;;;21.17;41.70;102233.22;7281124;19;154119;-58
2022/04/15 01:28:16;;;;;;;;;;;;;;;21.20;41.64;102231.81;7282249;19;152091;-59
2022/04/15 01:30:44;;;;;;;;;;;;;;;21.18;42.17;102243.34;7281421;19;152086;-58
2022/04/15 01:33:12;;;;;;;;;;;;;;;21.19;41.90;102239.41;7281276;19;154216;-58
2022/04/15 01:35:46;;;;;;;;;;;;;;;21.19;41.71;102242.22;7280213;19;152346;-57
2022/04/15 01:38:17;;;;;;;;;;;;;;;21.18;42.07;102243.34;7281355;19;152618;-58
2022/04/15 01:40:44;;;;;;;;;;;;;;;21.18;41.73;102245.31;7276901;19;154536;-58
2022/04/15 01:43:11;;;;;;;;;;;;;;;21.17;41.77;102241.66;7282149;19;152323;-59
2022/04/15 01:45:40;;;;;;;;;;;;;;;21.14;42.01;102242.22;7286103;19;152581;-59
2022/04/15 01:48:12;;;;;;;;;;;;;;;21.19;42.21;102253.47;7279403;19;152437;-58
2022/04/15 01:50:39;;;;;;;;;;;;;;;21.19;41.84;102247.00;7282435;19;152690;-58
2022/04/15 01:53:06;;;;;;;;;;;;;;;21.19;41.78;102250.66;7277062;19;153365;-58
2022/04/15 01:55:33;;;;;;;;;;;;;;;21.18;42.15;102254.56;7280878;19;151815;-59
2022/04/15 01:58:02;;;;;;;;;;;;;;;21.17;42.28;102254.84;7280158;19;151892;-58
2022/04/15 02:00:28;;;;;;;;;;;;;;;21.15;41.80;102257.13;7280936;19;154028;-58
2022/04/15 02:02:55;;;;;;;;;;;;;;;21.12;42.01;102254.84;7281439;19;151710;-59
2022/04/15 02:05:22;;;;;;;;;;;;;;;21.14;42.30;102252.59;7278332;19;151712;-60
2022/04/15 02:07:49;;;;;;;;;;;;;;;21.15;42.42;102260.78;7286845;19;152400;-58
2022/04/15 02:10:15;;;;;;;;;;;;;;;21.18;42.43;102268.63;7281111;19;153428;-58
2022/04/15 02:12:42;;;;;;;;;;;;;;;21.16;42.46;102267.25;7276753;19;153742;-59
2022/04/15 02:15:09;;;;;;;;;;;;;;;21.17;42.30;102266.94;7279853;19;151797;-58
2022/04/15 02:17:36;;;;;;;;;;;;;;;21.16;42.24;102272.88;7281025;19;153144;-58
2022/04/15 02:20:03;;;;;;;;;;;;;;;21.17;42.00;102268.91;7278143;19;153992;-59
2022/04/15 02:22:30;;;;;;;;;;;;;;;21.15;42.11;102265.53;7280651;19;151963;-59
2022/04/15 02:24:57;;;;;;;;;;;;;;;21.17;42.43;102280.16;7275916;19;153508;-59
2022/04/15 02:27:23;;;;;;;;;;;;;;;21.14;42.40;102273.13;7287231;19;153975;-58
2022/04/15 02:29:50;;;;;;;;;;;;;;;21.13;42.73;102268.63;7280279;19;152688;-59
2022/04/15 02:32:17;;;;;;;;;;;;;;;21.16;42.40;102275.66;7279808;19;153967;-58
2022/04/15 02:34:43;;;;;;;;;;;;;;;21.15;42.34;102279.59;7280990;19;151917;-58
2022/04/15 02:37:10;;;;;;;;;;;;;;;21.15;42.47;102268.34;7279991;19;153425;-59
2022/04/15 02:39:37;;;;;;;;;;;;;;;21.17;42.72;102272.56;7278706;19;153713;-58
2022/04/15 02:42:04;;;;;;;;;;;;;;;21.16;42.47;102270.91;7279564;19;151757;-59
2022/04/15 02:44:30;;;;;;;;;;;;;;;21.16;42.30;102270.06;7277041;19;152860;-59
2022/04/15 02:46:58;;;;;;;;;;;;;;;21.17;42.80;102278.19;7278001;19;153508;-59
2022/04/15 02:49:26;;;;;;;;;;;;;;;21.16;42.40;102281.28;7288095;19;152280;-59
2022/04/15 02:51:53;;;;;;;;;;;;;;;21.16;42.89;102279.34;7276207;19;153996;-59
2022/04/15 02:54:20;;;;;;;;;;;;;;;21.18;42.45;102284.66;7279914;19;152207;-60
2022/04/15 02:56:47;;;;;;;;;;;;;;;21.16;42.47;102282.13;7278528;19;153091;-58
2022/04/15 02:59:16;;;;;;;;;;;;;;;21.15;42.86;102277.63;7274800;19;153368;-59
2022/04/15 03:01:44;;;;;;;;;;;;;;;21.17;42.74;102271.72;7278953;19;152139;-59
2022/04/15 03:04:11;;;;;;;;;;;;;;;21.15;42.84;102273.97;7278642;19;154099;-58
2022/04/15 03:06:37;;;;;;;;;;;;;;;21.18;42.98;102279.03;7278829;19;154275;-58
2022/04/15 03:09:04;;;;;;;;;;;;;;;21.15;43.06;102279.59;7278920;19;151864;-59
2022/04/15 03:11:32;;;;;;;;;;;;;;;21.16;42.70;102270.91;7286472;19;152936;-58
2022/04/15 03:13:59;;;;;;;;;;;;;;;21.16;41.82;102278.47;7275922;19;152046;-60
2022/04/15 03:16:25;;;;;;;;;;;;;;;21.11;41.70;102270.00;7279325;19;152851;-59
2022/04/15 03:18:52;;;;;;;;;;;;;;;20.96;42.29;102264.38;7277442;19;153654;-59
2022/04/15 03:21:19;;;;;;;;;;;;;;;21.01;42.31;102267.19;7277729;19;151761;-59
2022/04/15 03:23:45;;;;;;;;;;;;;;;20.96;41.83;102265.22;7278265;19;151985;-60
2022/04/15 03:26:12;;;;;;;;;;;;;;;20.92;41.77;102264.09;7276541;19;153768;-58
2022/04/15 03:28:39;;;;;;;;;;;;;;;20.90;42.00;102269.13;7276950;19;152997;-58
2022/04/15 03:31:06;;;;;;;;;;;;;;;20.92;42.53;102258.47;7276757;19;153270;-59
2022/04/15 03:33:37;;;;;;;;;;;;;;;20.96;42.45;102264.38;7285077;19;153490;-59
2022/04/15 03:36:04;;;;;;;;;;;;;;;21.01;42.31;102267.19;7276360;19;153316;-59
2022/04/15 03:38:31;;;;;;;;;;;;;;;21.00;42.03;102269.16;7275962;19;154056;-59
2022/04/15 03:40:58;;;;;;;;;;;;;;;21.01;42.14;102267.19;7277413;19;152142;-58
2022/04/15 03:43:25;;;;;;;;;;;;;;;21.03;42.10;102260.16;7277344;19;153315;-59
2022/04/15 03:45:51;;;;;;;;;;;;;;;21.04;42.36;102263.81;7272314;19;153366;-58
2022/04/15 03:48:18;;;;;;;;;;;;;;;21.05;42.62;102257.06;7273940;19;152947;-59
2022/04/15 03:50:45;;;;;;;;;;;;;;;21.03;42.49;102267.78;7275069;19;153742;-58
2022/04/15 03:53:11;;;;;;;;;;;;;;;21.03;42.18;102262.16;7277262;19;154223;-59
2022/04/15 03:55:40;;;;;;;;;;;;;;;21.03;42.39;102260.16;7285179;19;152097;-59
2022/04/15 03:58:15;;;;;;;;;;;;;;;21.03;42.15;102264.97;7275915;19;153959;-60
2022/04/15 04:00:44;;;;;;;;;;;;;;;21.02;42.32;102260.44;7275299;19;152999;-59
2022/04/15 04:03:10;;;;;;;;;;;;;;;21.01;42.21;102261.56;7278740;19;153413;-60
2022/04/15 04:05:37;;;;;;;;;;;;;;;21.04;42.21;102263.81;7274193;19;153489;-59
2022/04/15 04:08:04;;;;;;;;;;;;;;;21.03;42.33;102277.00;7277304;19;151757;-58
2022/04/15 04:10:32;;;;;;;;;;;;;;;20.98;42.17;102273.38;7283460;19;153342;-58
2022/04/15 04:12:59;;;;;;;;;;;;;;;20.99;42.47;102270.25;7281107;19;153698;-60
2022/04/15 04:15:26;;;;;;;;;;;;;;;21.01;42.28;102276.47;7291693;19;151580;-60
2022/04/15 04:17:53;;;;;;;;;;;;;;;20.99;42.56;102284.31;7283320;19;153314;-59
2022/04/15 04:20:20;;;;;;;;;;;;;;;20.94;42.30;102281.50;7283831;19;151721;-60
2022/04/15 04:22:46;;;;;;;;;;;;;;;20.99;42.67;102291.91;7283008;19;152627;-59
2022/04/15 04:25:13;;;;;;;;;;;;;;;20.95;42.69;102290.78;7282639;19;152673;-58
2022/04/15 04:27:41;;;;;;;;;;;;;;;20.95;42.71;102290.78;7284285;19;151877;-59
2022/04/15 04:30:09;;;;;;;;;;;;;;;20.98;42.62;102293.03;7283636;19;152453;-60
2022/04/15 04:32:35;;;;;;;;;;;;;;;20.93;42.71;102302.31;7280013;19;154310;-59
2022/04/15 04:35:03;;;;;;;;;;;;;;;20.91;42.71;102304.53;7283786;19;151852;-59
2022/04/15 04:37:29;;;;;;;;;;;;;;;20.88;42.68;102310.72;7288018;19;153295;-59
2022/04/15 04:39:56;;;;;;;;;;;;;;;20.90;43.11;102307.63;7283873;19;151878;-58
2022/04/15 04:42:23;;;;;;;;;;;;;;;20.90;42.70;102302.00;7283034;19;152659;-59
2022/04/15 04:44:51;;;;;;;;;;;;;;;20.88;43.20;102312.69;7281131;19;154144;-59
2022/04/15 04:47:19;;;;;;;;;;;;;;;20.89;43.09;102315.22;7282295;19;151766;-60
2022/04/15 04:49:46;;;;;;;;;;;;;;;20.88;43.37;102312.69;7283433;19;152580;-60
2022/04/15 04:52:13;;;;;;;;;;;;;;;20.91;42.82;102312.13;7279460;19;154015;-59
2022/04/15 04:54:39;;;;;;;;;;;;;;;20.91;42.76;102309.31;7283121;19;152108;-61
2022/04/15 04:57:06;;;;;;;;;;;;;;;20.90;42.74;102311.28;7282011;19;153348;-58
2022/04/15 04:59:33;;;;;;;;;;;;;;;20.91;43.29;102312.97;7289415;19;153107;-59
2022/04/15 05:02:00;;;;;;;;;;;;;;;20.92;43.20;102320.28;7283751;19;153327;-59
2022/04/15 05:04:27;;;;;;;;;;;;;;;20.89;43.30;102318.03;7280551;19;153222;-59
2022/04/15 05:06:55;;;;;;;;;;;;;;;20.94;43.10;102317.22;7280789;19;152629;-59
2022/04/15 05:09:21;;;;;;;;;;;;;;;20.92;42.96;102320.28;7280459;19;152550;-59
2022/04/15 05:11:49;;;;;;;;;;;;;;;20.92;43.25;102320.28;7281048;19;152025;-59
2022/04/15 05:14:17;;;;;;;;;;;;;;;20.94;43.43;102322.81;7279389;19;151894;-60
2022/04/15 05:16:46;;;;;;;;;;;;;;;20.93;43.21;102324.78;7280237;19;152561;-58
2022/04/15 05:19:20;;;;;;;;;;;;;;;20.97;43.23;102325.06;7280947;19;152761;-60
2022/04/15 05:21:46;;;;;;;;;;;;;;;20.94;42.83;102323.63;7285667;19;152280;-59
2022/04/15 05:24:13;;;;;;;;;;;;;;;20.92;43.02;102325.91;7279849;19;154006;-59
2022/04/15 05:26:40;;;;;;;;;;;;;;;20.94;43.35;102320.00;7279867;19;151991;-59
2022/04/15 05:29:08;;;;;;;;;;;;;;;20.94;43.25;102320.00;7282184;19;153423;-59
2022/04/15 05:31:35;;;;;;;;;;;;;;;20.90;43.21;102321.66;7277722;19;153399;-58
2022/04/15 05:34:02;;;;;;;;;;;;;;;20.86;43.04;102325.03;7282306;19;152064;-59
2022/04/15 05:36:29;;;;;;;;;;;;;;;20.85;43.48;102320.53;7281818;19;153287;-61
2022/04/15 05:38:56;;;;;;;;;;;;;;;20.86;43.15;102324.19;7279963;19;154205;-61
2022/04/15 05:41:23;;;;;;;;;;;;;;;20.87;43.13;102328.69;7281445;19;152136;-60
2022/04/15 05:43:49;;;;;;;;;;;;;;;20.85;43.22;102330.94;7288626;19;153106;-61
2022/04/15 05:46:16;;;;;;;;;;;;;;;20.84;43.38;102337.69;7278421;19;151998;-62
2022/04/15 05:48:43;;;;;;;;;;;;;;;20.83;43.39;102336.00;7282695;19;153983;-61
2022/04/15 05:51:09;;;;;;;;;;;;;;;20.85;43.63;102331.78;7279894;19;153987;-60
2022/04/15 05:53:36;;;;;;;;;;;;;;;20.86;43.55;102339.09;7279668;19;152737;-60
2022/04/15 05:56:03;;;;;;;;;;;;;;;20.89;43.44;102342.47;7281763;19;152581;-58
2022/04/15 05:58:30;;;;;;;;;;;;;;;20.86;43.29;102346.66;7277482;19;152470;-57
2022/04/15 06:00:56;;;;;;;;;;;;;;;20.83;43.78;102342.47;7281187;19;151699;-57
2022/04/15 06:03:23;;;;;;;;;;;;;;;20.82;43.56;102343.56;7280200;19;153726;-59
2022/04/15 06:05:50;;;;;;;;;;;;;;;20.83;43.92;102353.69;7281246;19;154062;-58
2022/04/15 06:08:17;;;;;;;;;;;;;;;20.88;43.43;102349.22;7281200;19;153096;-59
2022/04/15 06:10:44;;;;;;;;;;;;;;;20.85;43.76;102348.63;7280330;19;153207;-59
2022/04/15 06:13:14;;;;;;;;;;;;;;;20.81;43.55;102350.31;7276101;19;151840;-60
2022/04/15 06:15:51;;;;;;;;;;;;;;;20.79;43.94;102351.72;7279851;19;153349;-59
2022/04/15 06:18:20;;;;;;;;;;;;;;;20.80;43.62;102348.59;7277977;19;152758;-59
2022/04/15 06:20:47;;;;;;;;;;;;;;;20.80;43.57;102357.03;7280618;19;152132;-58
2022/04/15 06:23:14;;;;;;;;;;;;;;;20.82;43.86;102360.44;7278141;19;154144;-60
2022/04/15 06:25:41;;;;;;;;;;;;;;;20.84;43.77;102358.19;7286021;19;154437;-58
2022/04/15 06:28:08;;;;;;;;;;;;;;;20.83;44.06;102358.47;7279436;19;153601;-58
2022/04/15 06:30:35;;;;;;;;;;;;;;;20.82;43.93;102354.81;7279373;19;153781;-58
2022/04/15 06:33:05;;;;;;;;;;;;;;;20.82;43.43;102363.25;7278347;19;151898;-58
2022/04/15 06:35:32;;;;;;;;;;;;;;;20.78;43.50;102370.53;7279780;19;152610;-59
2022/04/15 06:37:59;;;;;;;;;;;;;;;20.76;43.61;102367.13;7280034;19;153241;-58
2022/04/15 06:40:27;;;;;;;;;;;;;;;20.77;43.43;102377.25;7278314;19;152020;-58
2022/04/15 06:42:53;;;;;;;;;;;;;;;20.79;43.54;102377.00;7279599;19;153114;-59
2022/04/15 06:45:23;;;;;;;;;;;;;;;20.80;43.65;102384.31;7269608;19;155039;-59
2022/04/15 06:47:49;;;;;;;;;;;;;;;20.82;43.84;102382.91;7278650;19;152446;-59
2022/04/15 06:50:16;;;;;;;;;;;;;;;20.83;43.88;102378.97;7271749;19;154478;-59
2022/04/15 06:52:43;;;;;;;;;;;;;;;20.88;43.88;102383.78;7279651;19;151926;-59
2022/04/15 06:55:10;;;;;;;;;;;;;;;20.91;44.36;102383.22;7279217;19;152762;-59
2022/04/15 06:57:36;;;;;;;;;;;;;;;20.95;44.20;102389.97;7279104;19;153262;-58
2022/04/15 07:00:04;;;;;;;;;;;;;;;21.00;44.02;102383.50;7279288;19;151652;-58
2022/04/15 07:02:30;;;;;;;;;;;;;;;21.05;44.36;102386.34;7280347;19;153276;-57
2022/04/15 07:04:57;;;;;;;;;;;;;;;21.09;43.97;102393.94;7278656;19;153911;-58
2022/04/15 07:07:24;;;;;;;;;;;;;;;21.14;43.83;102396.81;7275851;19;151864;-58
2022/04/15 07:09:51;;;;;;;;;;;;;;;21.21;43.92;102390.94;7284852;19;152824;-59
2022/04/15 07:12:17;;;;;;;;;;;;;;;21.26;43.97;102382.47;7278800;19;151674;-60
2022/04/15 07:14:44;;;;;;;;;;;;;;;21.27;43.41;102389.78;7279170;19;152402;-59
2022/04/15 07:17:11;;;;;;;;;;;;;;;21.33;43.32;102385.03;7278238;19;153586;-59
2022/04/15 07:19:41;;;;;;;;;;;;;;;21.38;43.04;102391.50;7279798;19;151865;-59
2022/04/15 07:22:08;;;;;;;;;;;;;;;21.44;42.97;102393.19;7279195;19;153272;-59
2022/04/15 07:24:34;;;;;;;;;;;;;;;21.49;42.47;102390.38;7277523;19;153080;-58
2022/04/15 07:27:02;;;;;;;;;;;;;;;21.54;42.22;102386.72;7277335;19;151828;-59
2022/04/15 07:29:30;;;;;;;;;;;;;;;21.58;42.22;102397.13;7278732;19;153574;-60
2022/04/15 07:31:57;;;;;;;;;;;;;;;21.61;42.41;102390.97;7285549;19;153267;-59
2022/04/15 07:34:26;;;;;;;;;;;;;;;21.66;42.15;102395.75;7278353;19;153436;-58
2022/04/15 07:36:55;;;;;;;;;;;;;;;21.68;42.19;102397.16;7277597;19;153662;-58
2022/04/15 07:39:22;;;;;;;;;;;;;;;21.73;42.04;102402.78;7278355;19;154000;-59
2022/04/15 07:41:49;;;;;;;;;;;;;;;21.78;41.89;102406.72;7276591;19;152718;-59
2022/04/15 07:44:17;;;;;;;;;;;;;;;21.80;42.02;102402.50;7279097;19;154460;-59
2022/04/15 07:46:45;;;;;;;;;;;;;;;21.84;42.00;102406.44;7284006;19;152317;-59
2022/04/15 07:49:15;;;;;;;;;;;;;;;21.89;41.86;102408.41;7284395;19;152131;-59
2022/04/15 07:51:42;;;;;;;;;;;;;;;21.93;41.68;102406.75;7281761;19;153256;-58
2022/04/15 07:54:09;;;;;;;;;;;;;;;21.95;41.76;102410.97;7290994;19;151802;-59
2022/04/15 07:56:36;;;;;;;;;;;;;;;22.00;41.60;102404.47;7281543;19;154378;-60
2022/04/15 07:59:04;;;;;;;;;;;;;;;22.03;41.52;102410.38;7284880;19;152179;-59
2022/04/15 08:01:31;;;;;;;;;;;;;;;22.07;41.64;102397.47;7285342;19;152799;-60
2022/04/15 08:03:58;;;;;;;;;;;;;;;22.11;41.40;102400.53;7284409;19;153439;-60
2022/04/15 08:06:25;;;;;;;;;;;;;;;22.14;41.13;102400.81;7280760;19;152117;-60
2022/04/15 08:09:00;;;;;;;;;;;;;;;22.17;41.46;102403.03;7285802;19;154097;-59
2022/04/15 08:11:27;;;;;;;;;;;;;;;22.21;41.01;102406.16;7282590;19;153210;-59
2022/04/15 08:13:55;;;;;;;;;;;;;;;22.27;41.35;102401.34;7283042;19;151908;-59
2022/04/15 08:16:23;;;;;;;;;;;;;;;22.29;41.12;102399.94;7291930;19;152645;-59
2022/04/15 08:18:50;;;;;;;;;;;;;;;22.32;41.31;102399.34;7282342;19;152709;-59
2022/04/15 08:21:17;;;;;;;;;;;;;;;22.36;41.25;102397.66;7284988;19;152573;-60
2022/04/15 08:23:44;;;;;;;;;;;;;;;22.38;40.69;102397.38;7283162;19;153245;-60
2022/04/15 08:26:11;;;;;;;;;;;;;;;22.40;40.63;102404.41;7281739;19;151795;-59
2022/04/15 08:28:37;;;;;;;;;;;;;;;22.40;40.68;102393.13;7283660;19;152904;-59
2022/04/15 08:31:04;;;;;;;;;;;;;;;22.43;40.78;102403.00;7283044;19;153165;-59
2022/04/15 08:33:31;;;;;;;;;;;;;;;22.44;40.88;102399.06;7281716;19;152086;-59
2022/04/15 08:35:58;;;;;;;;;;;;;;;22.45;40.52;102404.38;7291356;19;153054;-59
2022/04/15 08:38:25;;;;;;;;;;;;;;;22.48;40.58;102405.81;7283607;19;151856;-60
2022/04/15 08:40:55;;;;;;;;;;;;;;;22.47;40.56;102410.59;7284710;19;152442;-60
2022/04/15 08:43:22;;;;;;;;;;;;;;;22.49;40.77;102407.47;7280717;19;154287;-59
2022/04/15 08:45:48;;;;;;;;;;;;;;;22.48;40.68;102411.44;7284148;19;152140;-58
2022/04/15 08:48:15;;;;;;;;;;;;;;;22.50;40.58;102407.19;7284638;19;153270;-58
2022/04/15 08:50:42;;;;;;;;;;;;;;;22.49;40.33;102404.66;7279953;19;154486;-59
2022/04/15 08:53:09;;;;;;;;;;;;;;;22.50;40.58;102406.34;7282865;19;151880;-59
2022/04/15 08:55:36;;;;;;;;;;;;;;;22.51;40.29;102408.88;7284264;19;152701;-60
2022/04/15 08:58:03;;;;;;;;;;;;;;;22.50;40.54;102411.97;7288180;19;154047;-59
2022/04/15 09:00:31;;;;;;;;;;;;;;;22.51;40.24;102411.69;7282601;19;154702;-59
2022/04/15 09:02:58;;;;;;;;;;;;;;;22.51;40.29;102411.69;7282922;19;154026;-59
2022/04/15 09:05:26;;;;;;;;;;;;;;;22.51;40.51;102411.69;7281218;19;151772;-59
2022/04/15 09:08:05;;;;;;;;;;;;;;;22.52;40.32;102423.81;7280708;19;152676;-59
2022/04/15 09:10:33;;;;;;;;;;;;;;;22.52;40.64;102423.81;7280310;19;153670;-60
2022/04/15 09:13:01;;;;;;;;;;;;;;;22.49;40.17;102425.22;7282638;19;152133;-60
2022/04/15 09:15:33;;;;;;;;;;;;;;;22.51;40.47;102433.41;7283138;19;152652;-61
2022/04/15 09:18:00;;;;;;;;;;;;;;;22.49;40.23;102428.03;7283926;19;153450;-60
2022/04/15 09:20:32;;;;;;;;;;;;;;;22.51;40.40;102431.41;7290060;19;152260;-59
2022/04/15 09:23:08;;;;;;;;;;;;;;;22.51;40.30;102430.56;7282591;19;153956;-59
2022/04/15 09:25:36;;;;;;;;;;;;;;;22.49;40.29;102430.84;7283704;19;151947;-59
2022/04/15 09:28:03;;;;;;;;;;;;;;;22.49;40.34;102430.00;7278547;19;152765;-59
2022/04/15 09:30:33;;;;;;;;;;;;;;;22.51;40.06;102422.97;7281329;19;155348;-59
2022/04/15 09:33:01;;;;;;;;;;;;;;;22.49;40.50;102436.47;7283109;19;152182;-60
2022/04/15 09:35:28;;;;;;;;;;;;;;;22.49;40.56;102442.13;7283168;19;152517;-60
2022/04/15 09:37:58;;;;;;;;;;;;;;;22.47;40.20;102443.53;7282370;19;154080;-59
2022/04/15 09:40:26;;;;;;;;;;;;;;;22.48;40.08;102445.25;7283457;19;152203;-59
2022/04/15 09:42:56;;;;;;;;;;;;;;;22.49;40.58;102442.13;7287699;19;152685;-60
2022/04/15 09:45:29;;;;;;;;;;;;;;;22.49;40.29;102444.09;7282645;19;151900;-59
2022/04/15 09:47:57;;;;;;;;;;;;;;;22.50;40.33;102445.78;7280140;19;152712;-59
2022/04/15 09:50:27;;;;;;;;;;;;;;;22.48;40.44;102446.09;7279580;19;153900;-59
2022/04/15 09:52:55;;;;;;;;;;;;;;;22.48;40.28;102445.25;7283277;19;152171;-60
2022/04/15 09:55:24;;;;;;;;;;;;;;;22.46;40.24;102439.88;7281790;19;153603;-59
2022/04/15 09:57:51;;;;;;;;;;;;;;;22.46;40.23;102441.84;7279881;19;154389;-59
2022/04/15 10:00:24;;;;;;;;;;;;;;;22.45;39.99;102438.19;7282176;19;151507;-60
2022/04/15 10:02:53;;;;;;;;;;;;;;;22.45;40.50;102448.59;7282144;19;152250;-57
2022/04/15 10:05:20;;;;;;;;;;;;;;;22.45;40.47;102446.63;7287943;19;153318;-59
2022/04/15 10:07:48;;;;;;;;;;;;;;;22.46;40.01;102442.69;7277352;19;153531;-59
2022/04/15 10:10:15;;;;;;;;;;;;;;;22.47;40.10;102438.75;7279928;19;156210;-59
2022/04/15 10:12:42;;;;;;;;;;;;;;;22.46;40.23;102433.41;7279623;19;151723;-58
2022/04/15 10:15:10;;;;;;;;;;;;;;;22.44;39.97;102436.50;7281424;19;152794;-59
2022/04/15 10:17:40;;;;;;;;;;;;;;;22.46;40.57;102437.06;7281461;19;153258;-59
2022/04/15 10:20:07;;;;;;;;;;;;;;;22.44;40.08;102439.31;7282066;19;152609;-58
2022/04/15 10:22:35;;;;;;;;;;;;;;;22.43;40.16;102431.16;7279526;19;154744;-59
2022/04/15 10:25:02;;;;;;;;;;;;;;;22.42;40.45;102433.13;7281338;19;156884;-58
2022/04/15 10:27:30;;;;;;;;;;;;;;;22.43;40.65;102439.63;7288007;19;151843;-61
2022/04/15 10:30:03;;;;;;;;;;;;;;;22.46;40.29;102442.69;7280776;19;154197;-61
2022/04/15 10:32:46;;;;;;;;;;;;;;;22.47;40.09;102432.28;7282449;19;152253;-60
2022/04/15 10:35:23;;;;;;;;;;;;;;;22.46;39.92;102425.81;7281424;19;153343;-60
2022/04/15 10:37:54;;;;;;;;;;;;;;;22.46;40.13;102431.44;7280361;19;153241;-60
2022/04/15 10:40:22;;;;;;;;;;;;;;;22.47;39.91;102430.31;7281810;19;152893;-61
2022/04/15 10:42:49;;;;;;;;;;;;;;;22.45;40.10;102426.91;7281383;19;151675;-60
2022/04/15 10:45:26;;;;;;;;;;;;;;;22.45;39.97;102429.75;7279264;19;154376;-61
2022/04/15 10:47:57;;;;;;;;;;;;;;;22.47;40.16;102427.50;7287505;19;151735;-60
2022/04/15 10:50:28;;;;;;;;;;;;;;;22.48;40.01;102425.53;7277727;19;153307;-60
2022/04/15 10:53:23;;;;;;;;;;;;;;;22.49;40.14;102430.84;7281267;19;151463;-60
2022/04/15 10:55:52;;;;;;;;;;;;;;;22.49;40.36;102425.22;7277619;19;152911;-60
2022/04/15 10:58:20;;;;;;;;;;;;;;;22.49;40.16;102415.91;7281040;19;153643;-60
2022/04/15 11:01:14;;;;;;;;;;;;;;;22.50;40.39;102421.28;7280479;19;152181;-62
2022/04/15 11:03:42;;;;;;;;;;;;;;;22.49;40.35;102419.59;7278874;19;154935;-61
2022/04/15 11:06:11;;;;;;;;;;;;;;;22.52;39.93;102406.91;7278443;19;154169;-60
2022/04/15 11:09:12;;;;;;;;;;;;;;;22.52;40.33;102407.75;7278036;19;151902;-60
2022/04/15 11:11:44;;;;;;;;;;;;;;;22.53;39.96;102400.16;7284212;19;151973;-60
2022/04/15 11:14:14;;;;;;;;;;;;;;;22.53;40.34;102397.34;7277862;19;151710;-60
2022/04/15 11:16:42;;;;;;;;;;;;;;;22.54;39.90;102399.84;7280805;19;153501;-61
2022/04/15 11:19:13;;;;;;;;;;;;;;;22.55;40.32;102398.72;7278304;19;152373;-61
2022/04/15 11:21:40;;;;;;;;;;;;;;;22.57;39.75;102398.44;7287059;19;151824;-60
2022/04/15 11:24:11;;;;;;;;;;;;;;;22.56;40.01;102402.41;7287003;19;152598;-60
2022/04/15 11:26:39;;;;;;;;;;;;;;;22.56;39.88;102400.44;7283059;19;154165;-61
2022/04/15 11:29:06;;;;;;;;;;;;;;;22.57;39.88;102399.31;7283315;19;151985;-60
2022/04/15 11:31:33;;;;;;;;;;;;;;;22.58;40.24;102406.59;7286562;19;153081;-60
2022/04/15 11:34:04;;;;;;;;;;;;;;;22.59;40.08;102401.81;7293490;19;153828;-61
2022/04/15 11:36:33;;;;;;;;;;;;;;;22.59;40.19;102402.66;7285982;19;153203;-60
2022/04/15 11:39:01;;;;;;;;;;;;;;;22.58;40.02;102406.59;7284951;19;154943;-60
2022/04/15 11:41:28;;;;;;;;;;;;;;;22.58;40.15;102400.97;7285251;19;152287;-61
2022/04/15 11:43:55;;;;;;;;;;;;;;;22.61;39.84;102408.00;7285856;19;153174;-60
2022/04/15 11:46:22;;;;;;;;;;;;;;;22.62;40.14;102406.88;7284053;19;156661;-61
2022/04/15 11:48:50;;;;;;;;;;;;;;;22.58;39.96;102402.94;7285303;19;151619;-57
2022/04/15 11:51:22;;;;;;;;;;;;;;;22.58;39.97;102411.38;7283719;19;152999;-62
2022/04/15 11:53:49;;;;;;;;;;;;;;;22.62;39.77;102406.88;7283820;19;153776;-60
2022/04/15 11:56:16;;;;;;;;;;;;;;;22.59;39.83;102402.66;7293442;19;151725;-61
2022/04/15 11:58:43;;;;;;;;;;;;;;;22.59;39.96;102393.34;7284069;19;154419;-61
2022/04/15 12:01:10;;;;;;;;;;;;;;;22.60;39.98;102403.50;7285804;19;151781;-61
2022/04/15 12:03:41;;;;;;;;;;;;;;;22.55;39.76;102387.47;7285030;19;152686;-59
2022/04/15 12:06:11;;;;;;;;;;;;;;;22.59;39.72;102390.53;7282808;19;153502;-59
2022/04/15 12:08:37;;;;;;;;;;;;;;;22.58;39.74;102394.47;7280242;19;152054;-61
2022/04/15 12:11:04;;;;;;;;;;;;;;;22.57;39.73;102390.84;7284931;19;153645;-61
2022/04/15 12:13:33;;;;;;;;;;;;;;;22.57;40.09;102387.19;7281565;19;153636;-60
2022/04/15 12:15:59;;;;;;;;;;;;;;;22.57;40.07;102384.38;7284185;19;151892;-61
2022/04/15 12:18:26;;;;;;;;;;;;;;;22.54;40.15;102380.13;7287910;19;152614;-61
2022/04/15 12:20:53;;;;;;;;;;;;;;;22.58;40.09;102381.25;7282115;19;151547;-60
2022/04/15 12:23:20;;;;;;;;;;;;;;;22.56;40.11;102383.53;7283343;19;153394;-61
2022/04/15 12:26:07;;;;;;;;;;;;;;;22.54;39.97;102388.59;7280561;19;154613;-60
2022/04/15 12:31:32;;;;;;;;;;;;;;;22.54;40.11;102382.94;7280715;19;152528;-60
2022/04/15 12:34:00;;;;;;;;;;;;;;;22.54;39.76;102382.09;7281184;19;153385;-59
2022/04/15 12:36:40;;;;;;;;;;;;;;;22.53;40.06;102381.25;7279051;19;152668;-60